Date,TemperatureHighF,TemperatureAvgF,TemperatureLowF,DewpointHighF,DewpointAvgF,DewpointLowF,HumidityHigh,HumidityAvg,HumidityLow,PressureMaxIn,PressureMinIn,WindSpeedMaxMPH,WindSpeedAvgMPH,GustSpeedMaxMPH,PrecipitationSumIn
2014-1-1,49.7,43.7,39.4,43.1,39.4,36.3,94,85,61,30.36,30.12,4,1,6,0.04
2014-1-2,54.2,50.8,45.4,53.1,49.4,43.5,96,95,88,30.11,29.58,11,3,14,0.72
2014-1-3,51.4,36.0,28.4,48.0,21.3,12.3,88,56,38,30.42,29.66,13,7,21,0.00
2014-1-4,44.9,36.5,27.4,39.6,26.6,12.4,86,68,46,30.45,30.20,6,4,10,0.00
2014-1-5,66.6,56.5,43.4,63.6,54.4,39.6,97,93,86,30.20,29.81,10,3,14,0.08
2014-1-6,66.3,51.9,30.1,63.2,41.8,11.6,96,71,37,30.17,29.69,15,10,24,0.02
2014-1-7,30.1,24.8,17.8,11.6,3.8,-1.7,53,40,29,30.51,30.17,9,4,15,0.00
2014-1-8,44.6,31.3,21.3,23.5,15.7,7.0,86,57,22,30.59,30.48,5,1,8,0.00
2014-1-9,57.7,42.3,30.9,46.3,31.9,20.2,86,67,55,30.51,30.37,7,3,9,0.00
2014-1-10,71.7,61.2,47.3,63.9,57.1,44.1,96,87,73,30.37,30.05,14,5,19,0.10
2014-1-11,74.9,66.8,60.4,68.9,64.1,58.3,97,91,73,30.05,29.67,17,8,28,0.56
2014-1-12,60.6,53.5,42.7,58.2,40.6,31.8,92,64,34,30.18,29.71,11,4,14,0.00
2014-1-13,65.0,50.4,37.6,49.9,41.9,35.5,94,75,44,30.18,29.93,11,2,14,0.00
2014-1-14,60.3,55.5,45.2,59.2,53.4,43.3,96,93,86,29.97,29.75,12,3,19,0.40
2014-1-15,59.3,49.4,40.0,52.4,42.6,38.7,97,80,49,29.96,29.81,8,2,10,0.02
2014-1-16,47.4,41.7,36.1,39.4,34.1,29.8,87,75,52,30.05,29.86,7,3,10,0.00
2014-1-17,59.4,46.4,32.7,47.9,36.5,27.4,83,70,45,30.06,29.85,12,5,16,0.00
2014-1-18,53.1,40.3,33.1,44.2,22.4,16.3,72,49,36,30.06,29.86,12,6,24,0.00
2014-1-19,57.1,44.7,33.4,35.6,30.3,23.5,73,58,42,30.05,29.91,10,4,15,0.00
2014-1-20,67.6,51.9,40.0,36.6,30.9,23.3,71,49,19,29.97,29.80,12,5,19,0.00
2014-1-21,64.9,51.7,40.9,50.9,38.5,32.4,88,62,38,29.83,29.46,14,7,19,0.10
2014-1-22,40.9,34.2,27.6,33.6,22.4,15.9,80,64,39,30.10,29.73,9,3,13,0.00
2014-1-23,42.1,33.4,26.6,22.3,16.7,11.7,80,53,30,30.31,30.08,6,2,10,0.00
2014-1-24,33.2,26.2,18.9,24.4,5.6,-2.6,71,43,24,30.57,30.28,11,5,18,0.00
2014-1-25,52.2,36.2,17.0,24.1,17.5,8.7,78,51,26,30.32,29.70,15,6,21,0.00
2014-1-26,54.2,45.2,32.1,37.0,27.2,20.9,70,51,33,29.99,29.88,10,4,13,0.00
2014-1-27,66.5,54.0,45.0,49.6,41.9,34.5,85,65,44,29.94,29.78,10,4,15,0.00
2014-1-28,54.5,34.6,26.3,49.7,21.6,9.6,91,62,30,30.21,29.93,12,7,18,0.00
2014-1-29,27.9,25.5,22.0,25.1,20.5,18.8,92,81,71,30.34,30.07,9,4,11,0.00
2014-1-30,33.4,28.9,24.5,27.6,19.1,13.2,81,67,52,30.36,30.16,7,3,11,0.00
2014-1-31,60.2,42.1,33.0,39.7,28.9,20.8,90,63,22,30.22,30.11,4,1,5,0.27
2014-2-1,38.8,34.1,32.2,34.3,31.7,30.1,93,91,74,30.17,30.13,4,1,4,0.00
2014-2-3,76.2,68.8,50.8,67.4,60.5,44.0,95,75,63,30.14,29.92,14,8,18,0.00
2014-2-4,50.7,44.9,43.3,43.6,41.0,38.6,95,86,77,30.28,30.03,8,4,12,0.00
2014-2-5,73.9,59.0,43.6,67.5,52.0,41.7,98,80,45,30.04,29.78,13,5,17,0.03
2014-2-6,53.5,45.5,37.8,42.5,34.0,29.7,88,64,51,30.30,29.99,9,5,12,0.04
2014-2-7,50.9,41.3,33.6,37.2,34.6,31.7,93,79,54,30.32,30.19,6,2,9,0.01
2014-2-8,49.4,40.9,36.6,41.1,36.5,33.0,93,84,68,30.23,30.07,7,2,10,0.18
2014-2-9,59.9,45.7,33.3,46.7,38.8,31.4,94,79,47,30.17,29.97,9,3,13,0.00
2014-2-10,58.5,48.1,39.8,43.9,40.4,35.9,92,76,55,30.15,29.99,8,3,10,0.00
2014-2-11,44.0,34.7,29.8,35.7,31.7,26.7,93,89,72,30.32,30.12,10,7,16,0.40
2014-2-12,33.3,31.2,29.0,31.8,29.0,25.6,95,91,85,30.29,29.67,9,2,12,0.94
2014-2-13,38.2,34.6,32.9,36.1,32.8,31.6,95,93,90,29.75,29.50,13,5,20,0.39
2014-2-14,60.1,46.9,34.7,41.9,36.4,31.8,92,70,36,29.86,29.71,11,6,12,0.00
2014-2-15,53.8,49.1,36.5,47.5,36.7,24.7,92,64,36,30.04,29.52,14,8,26,0.21
2014-2-16,55.7,43.9,34.1,38.5,31.3,22.6,83,63,37,30.12,30.00,7,2,11,0.00
2014-2-17,53.6,44.2,36.5,38.6,34.5,30.0,89,70,50,30.30,30.10,10,4,13,0.00
2014-2-18,70.1,53.8,42.3,50.9,45.5,36.2,91,75,45,30.20,30.09,10,2,12,0.00
2014-2-19,79.4,65.8,53.1,58.8,51.8,44.8,94,65,30,30.09,29.92,15,7,24,0.00
2014-2-20,77.5,66.7,56.5,65.1,58.8,48.9,95,77,60,30.14,30.02,12,5,19,0.00
2014-2-21,74.5,66.6,55.1,67.9,62.3,51.5,95,86,79,30.02,29.81,18,7,28,0.18
2014-2-22,65.6,54.7,47.2,51.4,40.8,29.6,91,64,26,30.13,30.00,8,3,12,0.00
2014-2-23,65.2,54.0,41.6,51.0,45.5,39.2,93,75,49,30.08,29.89,5,1,7,0.00
2014-2-24,55.6,54.9,54.6,52.7,51.6,50.8,90,88,87,29.89,29.87,5,3,8,0.00
2014-2-25,73.0,65.2,49.9,52.0,44.7,39.7,69,49,32,29.94,29.83,13,5,23,0.00
2014-2-26,49.9,42.4,38.0,40.0,36.6,30.5,93,81,54,29.90,29.74,7,4,13,0.26
2014-2-27,57.5,44.4,34.7,42.4,37.6,33.2,95,79,43,29.92,29.76,9,3,17,0.26
2014-2-28,52.4,43.8,34.2,38.4,30.7,20.4,92,61,49,30.20,29.92,9,5,19,0.00
2014-3-1,56.7,46.5,37.7,45.3,38.7,31.0,86,74,62,30.30,30.17,7,3,13,0.00
2014-3-2,70.8,57.0,42.0,49.3,44.6,39.6,92,66,42,30.20,29.96,10,3,20,0.00
2014-3-3,71.9,55.2,33.1,57.5,46.1,28.9,91,73,51,30.13,29.79,15,8,34,0.07
2014-3-4,36.6,32.3,25.9,29.1,25.1,19.4,86,75,69,30.25,30.12,12,6,21,0.07
2014-3-5,40.2,37.7,35.2,38.1,33.3,27.2,93,84,69,30.18,30.07,7,4,13,0.04
2014-3-6,43.0,39.3,36.4,41.1,35.5,29.4,94,86,75,30.20,29.72,17,10,32,1.15
2014-3-7,46.5,43.1,39.6,44.9,41.2,36.9,94,93,90,29.95,29.68,16,7,24,0.09
2014-3-8,66.8,50.0,35.6,49.2,41.8,33.5,93,76,44,30.09,29.94,8,4,14,0.09
2014-3-9,72.5,59.5,49.3,48.2,46.1,43.4,87,64,37,30.06,29.96,6,4,14,0.00
2014-3-10,74.9,59.8,47.5,49.5,43.7,32.5,92,62,25,29.98,29.80,9,3,17,0.00
2014-3-11,79.0,65.7,52.9,55.9,49.2,43.6,80,58,31,29.83,29.66,7,2,12,0.00
2014-3-12,73.2,66.9,55.4,60.4,56.5,36.0,90,70,46,29.70,29.36,5,0,19,0.03
2014-3-13,55.4,47.0,38.1,36.8,22.6,14.9,64,39,23,30.21,29.60,0,0,0,0.03
2014-3-14,59.1,46.4,30.4,41.2,31.9,25.1,92,62,28,30.33,30.13,0,0,0,0.00
2014-3-15,73.2,61.6,49.3,48.8,43.9,39.3,77,55,31,30.13,29.94,0,0,0,0.00
2014-3-16,58.5,54.5,52.2,55.1,49.1,42.1,96,83,55,30.01,29.70,0,0,0,0.59
2014-3-17,56.2,43.5,38.4,54.9,42.1,37.0,96,95,93,29.86,29.66,0,0,0,0.31
2014-3-18,45.2,40.0,35.6,41.0,37.5,34.0,95,91,84,30.09,29.77,0,0,0,0.03
2014-3-19,52.4,45.6,40.9,47.3,42.6,38.7,95,89,82,30.13,29.99,0,0,0,0.01
2014-3-20,70.9,56.3,44.3,51.0,47.0,42.1,95,74,36,30.02,29.90,0,0,0,0.00
2014-3-21,65.9,55.7,46.8,49.1,38.2,29.0,93,56,26,30.14,29.98,0,0,0,0.00
2014-3-22,76.9,62.5,48.9,62.8,54.6,44.9,93,77,43,30.08,29.91,1,0,2,0.01
2014-3-23,71.9,61.3,46.0,61.5,55.2,40.8,96,81,60,30.07,29.82,10,1,14,0.03
2014-3-24,52.6,45.2,39.1,40.7,36.2,31.1,91,72,46,30.21,30.06,7,1,11,0.00
2014-3-25,53.8,45.0,40.9,49.0,40.9,33.6,94,85,72,30.06,29.68,5,0,13,0.38
2014-3-26,51.5,41.8,34.3,33.2,23.9,17.7,75,52,27,30.30,29.94,6,2,13,0.01
2014-3-27,57.7,45.8,31.1,42.8,34.3,26.7,92,68,33,30.45,30.28,6,1,14,0.00
2014-3-28,70.3,59.1,45.9,61.8,55.1,42.6,95,87,69,30.28,30.08,10,2,17,0.26
2014-3-29,71.7,64.7,60.6,67.4,62.6,59.5,97,93,82,30.08,29.62,11,2,20,1.69
2014-3-30,64.4,55.6,49.9,61.6,39.4,29.8,91,56,36,29.98,29.62,13,7,21,0.00
2014-3-31,73.7,57.7,43.7,46.9,32.2,24.5,77,42,16,30.08,29.97,5,1,10,0.00
2014-4-1,78.4,63.2,45.7,51.3,44.7,35.5,90,56,24,30.13,30.00,8,3,11,0.00
2014-4-2,85.2,70.0,56.2,54.8,46.1,39.3,71,46,20,30.11,29.99,11,4,14,0.00
2014-4-3,84.2,70.6,60.4,60.1,54.7,48.2,80,59,29,30.06,29.92,10,5,16,0.00
2014-4-4,83.9,72.6,62.8,63.2,59.1,53.8,91,65,37,29.94,29.81,13,6,23,0.00
2014-4-5,80.5,71.7,63.6,59.5,54.6,45.8,84,58,30,29.97,29.84,10,4,14,0.00
2014-4-6,65.3,59.0,54.7,51.4,46.8,41.2,80,64,54,30.08,29.96,7,3,12,0.00
2014-4-7,78.9,64.3,56.9,67.4,58.0,48.7,95,81,63,29.99,29.70,12,2,18,0.23
2014-4-8,71.5,67.2,62.3,65.3,60.7,52.1,95,81,55,29.71,29.56,9,2,12,0.13
2014-4-9,70.2,61.2,51.7,54.9,46.3,39.5,82,61,33,30.08,29.60,6,2,8,0.00
2014-4-10,73.2,61.5,47.5,52.4,47.6,44.0,93,64,36,30.24,30.08,10,3,16,0.00
2014-4-11,77.8,66.9,55.4,56.7,52.7,49.4,88,63,39,30.25,30.10,13,5,20,0.00
2014-4-12,80.0,68.0,58.1,61.6,56.9,52.5,91,70,41,30.20,30.12,9,2,16,0.00
2014-4-13,78.1,68.9,59.6,66.0,60.5,55.6,96,77,47,30.20,30.10,10,2,14,0.00
2014-4-14,74.6,68.8,62.2,67.5,64.2,59.2,93,86,74,30.10,29.83,10,2,6,0.18
2014-4-15,72.8,68.2,47.6,69.3,64.9,41.3,95,89,78,29.91,29.61,12,4,22,0.35
2014-4-16,56.9,47.3,39.7,41.2,35.0,30.6,83,63,39,30.36,29.91,11,4,17,0.00
2014-4-17,67.6,52.1,39.3,53.1,42.6,32.7,84,71,49,30.44,30.31,7,3,10,0.00
2014-4-18,63.9,55.1,49.4,54.7,49.2,42.7,94,81,68,30.33,30.06,9,2,16,0.73
2014-4-19,57.3,55.2,52.2,54.7,52.9,49.4,95,92,87,30.06,29.90,11,3,15,0.53
2014-4-20,61.9,56.2,51.1,54.9,50.6,46.0,94,82,65,30.09,29.98,12,5,19,0.29
2014-4-21,75.1,62.3,50.9,61.2,52.6,43.7,84,71,58,30.08,29.90,7,2,11,0.00
2014-4-22,83.1,69.5,56.5,61.0,55.7,49.7,90,66,32,29.91,29.66,8,2,13,0.00
2014-4-23,81.1,69.4,60.7,61.5,53.5,42.4,95,61,29,29.91,29.69,6,1,10,0.00
2014-4-24,72.1,61.0,51.0,55.0,47.6,40.9,89,63,38,30.08,29.91,8,2,10,0.00
2014-4-25,81.9,70.2,57.3,69.7,62.3,54.3,96,78,56,29.97,29.70,13,4,19,0.00
2014-4-26,78.6,68.5,60.7,63.7,51.1,40.7,88,57,28,30.00,29.82,9,2,13,0.00
2014-4-27,84.8,67.9,56.3,63.1,57.5,53.8,93,72,36,30.00,29.89,7,1,11,0.00
2014-4-28,82.0,73.5,67.1,72.4,67.1,62.2,90,81,69,29.95,29.82,9,2,16,0.03
2014-4-29,84.1,76.3,70.8,73.8,71.2,67.4,94,85,70,30.01,29.82,13,4,19,0.01
2014-4-30,77.7,73.1,68.5,72.8,70.2,66.7,94,91,84,30.03,29.90,11,1,15,0.78
2014-5-1,80.4,73.2,69.1,67.9,66.7,64.7,93,81,62,29.94,29.83,5,1,10,0.00
2014-5-2,69.3,63.9,60.6,66.0,58.3,54.3,91,82,68,29.93,29.85,5,0,7,0.00
2014-5-3,77.0,68.1,60.0,59.0,54.4,47.8,91,65,37,29.92,29.83,8,1,13,0.00
2014-5-4,84.4,70.1,54.7,59.1,52.9,47.8,86,57,31,29.98,29.86,5,1,11,0.00
2014-5-5,84.0,70.6,62.3,64.5,58.8,52.6,91,68,43,29.94,29.83,7,2,11,0.00
2014-5-6,90.3,78.5,66.4,64.3,59.9,52.9,92,56,29,29.92,29.80,4,1,10,0.00
2014-5-7,89.9,77.5,64.2,65.1,60.8,51.2,87,60,27,30.08,29.92,7,2,12,0.00
2014-5-8,90.6,77.9,66.2,70.6,64.0,59.0,86,64,36,30.18,30.07,7,3,11,0.00
2014-5-9,88.8,75.9,67.9,71.3,67.0,61.3,95,76,41,30.17,30.05,7,2,12,0.00
2014-5-10,86.6,77.2,71.9,71.1,68.9,61.0,93,77,45,30.12,30.01,10,3,13,0.00
2014-5-11,81.7,74.4,70.3,72.2,69.4,66.6,94,85,67,30.12,30.03,4,0,7,0.07
2014-5-12,87.1,77.0,70.5,73.8,70.9,68.8,95,82,57,30.17,30.08,6,1,8,0.00
2014-5-13,86.0,76.8,69.4,71.6,69.1,65.3,95,79,57,30.15,30.08,7,1,10,0.00
2014-5-14,83.0,75.5,67.8,70.9,67.9,65.7,96,78,57,30.15,30.05,10,3,16,0.00
2014-5-15,78.9,73.8,71.3,73.9,70.4,67.5,94,89,80,30.07,29.84,10,3,17,2.13
2014-5-16,75.3,69.1,61.1,71.1,58.5,47.3,96,72,39,30.03,29.78,7,1,11,0.32
2014-5-17,74.6,64.9,53.2,55.5,47.3,40.9,80,56,35,30.16,30.03,3,1,9,0.00
2014-5-18,65.8,62.4,57.3,59.3,55.7,53.1,88,79,65,30.18,30.13,2,0,4,0.01
2014-5-19,73.8,63.6,54.0,57.2,51.9,44.0,92,69,36,30.25,30.15,6,1,9,0.00
2014-5-20,77.8,65.9,52.7,58.4,53.7,49.1,94,68,39,30.27,30.13,6,2,11,0.00
2014-5-21,87.0,73.9,60.9,68.8,61.2,54.3,83,66,45,30.13,29.94,8,2,13,0.00
2014-5-22,92.5,80.1,69.0,69.6,65.1,61.6,85,63,37,29.97,29.84,6,1,9,0.00
2014-5-23,92.4,79.0,71.4,71.7,67.5,63.1,89,70,39,29.96,29.86,7,0,11,0.79
2014-5-24,82.3,72.5,66.2,67.0,59.2,53.2,91,66,38,30.07,29.92,4,1,9,0.00
2014-5-25,81.1,71.4,60.9,66.7,61.6,59.1,94,73,48,30.17,30.06,5,1,10,0.00
2014-5-26,83.4,75.1,66.7,68.8,66.2,62.6,93,75,55,30.20,30.09,9,3,17,0.00
2014-5-27,85.3,76.3,69.3,75.2,70.0,66.1,91,82,62,30.13,29.95,7,1,10,0.21
2014-5-28,89.6,79.7,70.6,73.0,70.4,68.4,95,75,51,30.00,29.91,6,1,8,0.00
2014-5-29,89.4,77.2,68.0,74.0,69.4,63.8,94,78,53,30.06,29.92,13,1,22,0.62
2014-5-30,81.9,74.6,68.3,72.0,69.2,66.7,95,84,65,30.06,29.99,3,0,7,0.00
2014-5-31,76.9,72.4,67.2,71.2,67.1,57.4,97,84,52,30.15,30.03,2,0,7,0.99
2014-6-1,77.8,68.6,60.2,62.8,57.0,48.0,89,69,36,30.26,30.14,6,1,12,0.00
2014-6-2,80.1,69.1,56.7,65.0,58.9,53.1,90,72,43,30.24,30.10,4,0,7,0.00
2014-6-3,84.8,74.2,65.2,69.8,65.8,62.2,92,76,54,30.12,29.92,7,1,10,0.00
2014-6-4,90.3,80.1,67.9,74.1,69.1,64.6,90,71,50,29.93,29.79,7,2,11,0.00
2014-6-5,92.0,81.6,73.6,73.5,70.4,67.3,84,70,52,29.84,29.69,9,5,15,0.00
2014-6-6,84.2,76.4,71.9,74.6,72.0,70.1,95,87,70,29.90,29.77,4,0,5,0.02
2014-6-7,82.6,76.0,70.8,72.6,69.0,64.9,96,80,57,29.96,29.85,6,1,12,0.00
2014-6-8,81.5,74.7,65.9,69.3,65.8,63.4,95,75,55,29.96,29.87,7,2,13,0.00
2014-6-9,92.5,81.8,74.3,78.6,73.6,67.1,93,78,44,29.89,29.81,1,0,1,0.00
2014-6-10,93.9,83.4,75.8,77.8,74.7,72.5,93,76,52,29.93,29.87,6,0,10,0.00
2014-6-11,88.1,81.1,74.9,75.8,73.6,71.7,94,79,62,29.94,29.84,7,1,15,0.00
2014-6-12,87.8,79.6,72.5,75.7,72.1,65.7,93,79,58,29.89,29.78,6,0,9,0.00
2014-6-13,89.4,79.5,71.7,75.1,70.6,66.0,91,75,50,29.86,29.78,4,0,10,0.00
2014-6-14,91.2,80.7,71.9,73.9,69.2,65.8,85,70,44,29.99,29.85,0,0,0,0.00
2014-6-15,87.6,78.8,73.5,75.2,72.7,70.0,92,82,62,30.11,29.98,2,0,3,0.00
2014-6-16,88.1,79.3,71.2,75.3,71.6,67.5,96,79,58,30.16,30.08,3,0,8,0.00
2014-6-17,90.8,80.4,71.8,74.1,70.5,67.4,95,74,50,30.16,30.07,2,0,7,0.00
2014-6-18,92.0,80.4,69.9,75.0,70.4,66.7,93,74,47,30.13,30.04,4,0,11,0.00
2014-6-19,92.4,80.8,72.2,75.3,72.3,69.7,93,77,49,30.12,29.98,5,1,11,0.00
2014-6-20,93.9,82.5,74.0,78.0,72.3,69.3,88,72,48,30.04,29.87,3,0,9,0.00
2014-6-21,91.6,80.0,72.4,79.1,73.6,69.0,93,82,60,29.92,29.76,7,0,13,0.12
2014-6-23,85.7,85.7,85.7,74.4,74.4,74.4,69,69,69,30.00,30.00,2,2,7,0.00
2014-6-24,84.3,77.6,72.8,76.1,73.3,71.0,95,87,70,30.08,29.98,3,0,5,0.10
2014-6-25,90.0,80.7,73.6,77.9,74.7,71.8,94,83,60,30.01,29.88,8,1,10,0.03
2014-6-26,94.2,84.2,75.6,76.4,74.2,69.6,94,74,45,29.96,29.86,5,0,7,0.00
2014-6-27,91.1,79.2,73.3,75.1,72.7,70.8,96,82,55,30.02,29.91,4,0,8,0.18
2014-6-28,81.4,75.2,73.1,76.8,73.3,71.7,97,94,82,30.13,30.00,4,0,11,0.82
2014-6-29,85.8,77.3,68.4,74.2,70.3,65.7,96,80,59,30.14,30.06,2,0,5,0.00
2014-6-30,88.1,77.3,67.9,71.6,68.5,65.8,93,76,54,30.08,29.94,5,0,7,0.00
2014-7-1,87.9,80.5,71.2,75.2,71.8,68.6,95,76,54,29.97,29.88,6,1,9,0.00
2014-7-2,89.0,82.9,76.3,77.3,75.5,72.6,94,79,60,29.96,29.92,8,2,12,0.00
2014-7-3,80.8,75.1,71.8,76.2,72.5,70.3,96,92,82,29.96,29.67,9,1,12,0.92
2014-7-4,88.5,80.6,73.6,75.5,73.2,70.4,94,79,58,30.06,29.85,0,0,0,0.01
2014-7-5,82.7,76.7,71.5,75.4,65.0,58.0,91,68,50,30.20,30.05,7,2,11,0.00
2014-7-6,84.1,76.4,67.1,71.3,67.7,63.7,90,75,58,30.14,30.02,6,1,9,0.00
2014-7-7,88.3,79.2,71.6,76.0,72.5,69.5,94,81,59,30.05,29.94,3,0,9,0.00
2014-7-8,91.9,83.0,77.0,77.7,74.8,70.3,95,78,50,30.03,29.92,10,2,15,0.00
2014-7-9,92.8,83.7,77.8,77.0,74.6,68.0,92,76,45,30.00,29.94,10,2,13,0.00
2014-7-10,90.0,81.6,72.3,78.4,74.8,68.9,93,81,60,30.08,29.96,9,2,16,0.02
2014-7-11,80.1,74.6,70.3,74.8,72.1,68.6,96,92,81,30.16,30.02,2,0,7,0.63
2014-7-12,86.2,78.7,72.6,76.0,73.0,71.1,97,84,63,30.18,30.10,2,0,6,0.10
2014-7-13,88.0,80.1,72.3,76.6,73.5,70.7,95,81,61,30.12,30.00,4,0,8,0.00
2014-7-14,91.2,81.5,74.5,79.3,74.9,70.7,94,81,59,30.03,29.88,12,1,15,0.00
2014-7-15,89.4,77.7,70.8,77.9,73.6,67.6,94,88,63,29.91,29.78,15,1,28,1.04
2014-7-16,84.6,76.5,70.9,75.6,72.7,69.2,96,88,72,29.87,29.77,2,0,6,0.18
2014-7-17,86.0,77.9,69.2,73.0,70.1,62.3,95,78,47,30.02,29.85,3,1,7,0.01
2014-7-18,86.2,77.7,68.5,71.0,66.4,63.6,93,70,49,30.11,30.02,5,1,9,0.00
2014-7-19,84.6,76.9,67.5,71.7,67.5,63.5,87,73,57,30.09,30.02,2,0,4,0.00
2014-7-20,86.6,79.4,72.6,76.1,73.1,69.8,92,82,65,30.06,29.99,5,0,7,0.00
2014-7-21,84.7,77.1,72.8,76.4,73.6,71.3,97,89,71,30.07,29.99,6,0,7,0.24
2014-7-22,83.9,78.6,72.6,77.2,74.8,71.8,98,89,75,30.09,30.01,2,0,6,0.14
2014-7-23,90.3,78.8,73.5,77.8,74.5,72.0,96,87,61,30.05,29.91,6,0,7,0.07
2014-7-24,92.3,83.2,72.6,78.3,75.4,69.2,96,79,54,29.92,29.80,9,2,12,0.03
2014-7-25,81.1,76.5,72.5,76.6,73.6,69.7,96,91,80,30.01,29.88,3,0,7,0.03
2014-7-26,90.1,80.0,72.9,77.8,74.2,71.0,94,83,61,29.99,29.91,7,0,8,0.02
2014-7-27,92.3,84.7,77.2,78.0,75.6,72.4,95,76,53,29.95,29.82,6,2,10,0.01
2014-7-28,92.6,82.3,72.8,79.3,75.1,67.7,93,79,60,29.83,29.71,8,2,22,0.01
2014-7-29,87.1,77.8,69.3,72.7,67.7,64.4,93,73,48,29.92,29.78,3,0,5,0.03
2014-7-30,84.9,76.9,68.8,72.3,68.9,66.5,93,78,57,30.01,29.91,10,1,13,0.01
2014-7-31,85.1,76.4,70.2,75.1,71.2,67.2,94,84,68,30.05,29.99,7,1,13,0.01
2014-8-1,82.1,76.7,73.0,76.9,73.9,71.7,97,91,82,30.03,29.95,7,1,13,0.01
2014-8-2,76.3,74.7,73.3,74.7,73.4,72.4,98,96,92,30.04,29.95,0,0,0,0.01
2014-8-3,78.5,73.8,71.1,74.2,72.0,70.2,98,94,83,30.09,29.98,2,0,4,0.02
2014-8-4,79.9,75.1,71.6,75.5,72.9,70.7,98,93,81,30.04,29.96,1,0,1,0.02
2014-8-5,88.2,80.1,72.7,76.4,73.9,71.5,98,82,62,29.99,29.91,3,0,8,0.02
2014-8-6,91.7,83.0,73.6,75.6,71.9,67.1,96,72,46,29.96,29.87,4,1,9,0.02
2014-8-7,92.0,81.2,72.4,75.0,71.6,69.2,92,74,53,29.95,29.85,3,0,8,0.02
2014-8-8,88.3,79.0,72.5,77.1,73.2,70.8,96,83,61,30.03,29.93,4,0,7,0.01
2014-8-9,84.7,77.8,74.0,77.0,74.0,71.7,96,88,72,30.03,29.95,5,0,5,0.01
2014-8-10,83.5,76.3,73.3,76.6,74.0,72.1,97,93,78,30.01,29.95,3,0,7,0.00
2014-8-11,86.7,78.8,72.2,76.8,74.4,71.3,98,87,68,29.98,29.88,7,1,13,0.02
2014-8-12,89.9,79.7,74.1,79.0,74.8,71.9,97,86,61,29.89,29.77,10,1,11,0.00
2014-8-13,88.4,79.7,73.8,75.9,72.9,68.5,95,81,58,29.91,29.78,4,0,7,0.01
2014-8-14,85.9,76.8,67.5,69.3,65.2,62.3,85,69,48,30.01,29.90,3,0,6,0.01
2014-8-15,86.5,77.7,67.9,71.5,67.9,65.1,96,74,51,30.01,29.92,4,0,9,0.00
2014-8-16,87.9,78.6,70.5,77.0,72.9,68.4,95,83,64,29.99,29.92,7,0,12,0.00
2014-8-17,91.5,82.7,74.7,76.5,72.3,67.5,96,74,46,29.98,29.90,1,0,4,0.00
2014-8-18,91.3,82.4,75.7,77.0,74.4,71.4,92,78,59,29.94,29.75,6,0,8,0.00
2014-8-19,89.8,79.7,73.4,75.7,73.1,70.4,93,81,58,29.85,29.77,2,0,8,0.00
2014-8-20,92.3,82.2,74.7,79.4,75.7,72.9,95,82,54,29.99,29.83,0,0,0,0.00
2014-8-21,93.8,83.3,77.2,78.8,76.0,73.1,92,80,59,30.02,29.94,0,0,0,0.00
2014-8-22,96.0,85.2,76.7,79.7,76.2,72.7,95,77,49,30.00,29.88,0,0,0,0.00
2014-8-23,93.5,82.2,75.4,80.1,77.1,74.2,97,86,59,29.90,29.81,4,0,7,0.23
2014-8-24,84.5,76.6,70.1,74.6,69.8,64.0,97,81,60,30.00,29.83,7,2,12,0.07
2014-8-25,80.6,74.5,64.2,71.3,67.6,60.6,88,79,69,30.01,29.96,8,3,15,0.00
2014-8-26,84.1,74.4,65.6,69.4,66.6,62.9,91,78,57,30.04,29.97,5,1,10,0.00
2014-8-27,86.6,76.9,65.2,69.3,66.3,62.5,91,72,52,30.00,29.91,4,1,8,0.00
2014-8-28,88.4,75.4,66.8,70.2,66.5,62.5,89,75,44,30.00,29.93,5,1,7,0.00
2014-8-29,91.2,79.8,71.0,75.2,71.4,64.9,92,77,47,30.09,29.99,5,1,9,0.01
2014-8-30,88.7,80.2,72.5,77.9,73.8,71.1,97,82,61,30.16,30.07,6,1,11,0.00
2014-8-31,89.0,80.4,73.7,77.7,74.9,72.3,97,84,62,30.13,30.03,5,1,6,0.00
2014-9-1,90.4,81.6,76.4,79.9,76.4,73.8,95,85,62,30.09,30.00,5,0,8,0.00
2014-9-2,90.5,82.6,76.7,79.4,76.7,75.3,96,83,64,30.05,29.94,7,1,14,0.00
2014-9-3,89.4,81.7,74.9,77.6,75.2,72.7,94,82,61,30.07,29.97,8,1,12,0.00
2014-9-4,88.5,81.5,73.9,77.2,74.6,72.3,96,81,60,30.13,30.06,5,1,10,0.00
2014-9-5,88.2,80.1,73.6,77.9,74.4,71.6,96,84,58,30.15,30.04,8,1,11,0.00
2014-9-6,83.8,78.4,73.3,76.9,74.0,71.4,95,87,75,30.05,29.90,7,1,10,0.00
2014-9-7,87.9,79.3,74.4,77.3,74.9,72.9,96,87,66,29.99,29.92,7,1,11,0.00
2014-9-8,80.7,75.7,72.9,75.8,73.6,71.4,96,93,81,30.01,29.93,6,0,11,0.00
2014-9-9,76.6,73.3,70.6,71.4,70.3,69.1,95,90,82,30.06,29.99,0,0,0,0.01
2014-9-10,84.4,76.3,71.1,73.0,70.6,69.1,96,84,65,30.07,29.99,0,0,0,0.00
2014-9-11,88.7,78.6,69.9,78.3,73.2,68.4,96,84,62,30.03,29.92,0,0,0,0.00
2014-9-12,90.1,78.5,73.6,77.6,74.5,70.7,95,88,64,30.02,29.93,0,0,0,0.00
2014-9-13,87.3,78.5,72.3,79.1,74.1,70.9,97,87,61,30.06,29.97,0,0,0,0.00
2014-9-14,75.6,71.0,67.2,74.1,68.7,65.1,97,93,88,30.17,30.05,0,0,0,0.01
2014-9-15,75.1,71.0,68.2,71.3,68.6,65.9,97,92,87,30.17,30.07,0,0,0,0.01
2014-9-16,85.1,75.9,70.2,75.0,71.8,69.0,97,88,67,30.08,29.89,0,0,0,0.00
2014-9-17,83.7,75.3,67.4,71.7,69.0,65.6,95,82,60,29.93,29.81,0,0,0,0.00
2014-9-18,82.4,73.9,67.1,72.8,68.9,65.7,96,85,66,29.98,29.84,0,0,0,0.00
2014-9-19,80.6,72.6,65.8,70.3,66.7,63.1,91,82,65,30.10,29.97,0,0,0,0.00
2014-9-20,75.1,70.4,65.3,68.1,65.4,61.9,90,84,78,30.10,29.86,0,0,0,0.00
2014-9-21,85.2,74.9,66.8,68.9,66.4,63.6,95,77,53,29.90,29.79,0,0,0,0.00
2014-9-22,76.7,71.9,66.5,68.4,65.5,62.5,95,81,62,30.06,29.86,0,0,0,0.00
2014-9-23,67.0,62.9,58.6,65.5,60.9,57.0,95,93,88,30.17,30.03,0,0,0,0.00
2014-9-24,66.5,62.2,58.3,63.8,60.4,56.4,96,94,88,30.17,30.11,0,0,0,0.01
2014-9-25,76.1,69.3,64.7,72.3,67.5,63.5,98,94,87,30.13,30.06,0,0,0,0.00
2014-9-26,72.1,68.0,64.8,68.0,65.4,63.1,95,91,86,30.11,30.05,0,0,0,0.00
2014-9-27,76.7,70.6,65.2,70.9,66.3,60.6,94,86,78,30.11,30.05,0,0,0,0.01
2014-9-28,81.4,73.0,66.3,72.1,68.5,63.7,94,86,71,30.10,29.99,0,0,0,0.00
2014-9-29,73.0,68.0,62.3,69.2,66.0,60.3,96,93,84,30.00,29.89,0,0,0,0.00
2014-9-30,80.6,70.0,61.6,68.6,64.4,60.4,96,84,62,29.90,29.78,0,0,0,0.00
2014-10-1,81.7,71.3,62.2,69.2,65.3,61.0,96,83,59,30.00,29.85,0,0,0,0.00
2014-10-2,82.7,72.8,63.9,71.1,67.4,62.7,97,84,61,30.08,29.99,0,0,0,0.00
2014-10-3,83.0,74.6,65.1,72.5,68.9,63.9,97,84,64,30.04,29.77,0,0,0,0.00
2014-10-4,76.9,71.4,57.7,72.4,59.2,42.1,94,68,38,29.87,29.67,0,0,0,0.00
2014-10-5,68.1,57.8,46.5,48.1,42.4,36.8,86,59,36,30.02,29.87,0,0,0,0.00
2014-10-6,74.6,62.3,49.3,54.3,49.0,42.3,91,65,34,30.10,30.01,0,0,0,0.00
2014-10-7,80.9,68.7,59.1,67.6,61.8,54.3,94,80,55,30.11,30.00,0,0,0,0.00
2014-10-8,87.5,76.1,67.5,71.5,68.8,65.7,94,80,57,30.05,29.92,0,0,0,0.00
2014-10-9,80.3,71.4,63.4,70.6,60.2,52.2,93,70,44,30.12,29.99,0,0,1,0.00
2014-10-10,83.2,72.6,60.9,68.0,64.7,58.9,94,78,51,30.10,30.00,0,0,0,0.00
2014-10-11,87.7,76.6,68.4,73.3,70.0,66.6,96,82,54,30.02,29.91,0,0,0,0.00
2014-10-12,75.4,68.6,65.1,71.6,66.2,63.5,96,92,87,30.14,29.98,0,0,0,0.00
2014-10-13,82.3,72.3,65.4,75.9,69.6,64.2,98,92,77,30.19,30.08,0,0,0,0.00
2014-10-14,82.2,76.7,73.0,75.5,72.8,68.2,94,88,77,30.08,29.90,0,0,0,0.00
2014-10-15,76.3,69.1,61.8,73.5,65.5,57.5,94,88,77,29.90,29.79,0,0,0,0.00
2014-10-16,71.9,63.5,56.4,57.9,55.8,53.6,92,77,54,29.85,29.76,0,0,0,0.00
2014-10-17,75.9,64.5,53.9,61.9,56.0,51.6,93,76,52,29.92,29.81,0,0,0,0.00
2014-10-18,80.5,68.5,58.6,64.3,59.4,54.8,89,74,51,29.85,29.71,0,0,0,0.00
2014-10-19,68.9,60.7,51.3,54.6,49.4,46.3,91,68,47,30.09,29.85,0,0,0,0.00
2014-10-20,73.6,60.5,47.8,61.0,53.4,44.4,92,79,60,30.12,29.95,0,0,0,0.00
2014-10-21,77.5,66.0,57.3,59.6,56.6,53.2,95,74,44,29.96,29.80,0,0,0,0.00
2014-10-22,67.8,59.8,52.0,54.5,46.6,43.2,76,62,45,30.01,29.86,0,0,0,0.00
2014-10-23,69.0,57.0,46.4,49.0,46.1,42.4,86,69,45,30.02,29.91,0,0,0,0.00
2014-10-24,70.8,58.5,48.0,55.0,49.7,44.6,89,74,50,30.02,29.92,0,0,0,0.00
2014-10-25,74.6,60.5,47.2,53.0,48.3,43.3,94,68,33,29.98,29.88,0,0,0,0.00
2014-10-26,83.5,66.0,52.4,59.0,53.2,46.7,84,66,34,29.92,29.81,0,0,0,0.00
2014-10-27,80.2,64.9,51.2,64.6,57.5,49.3,96,79,52,30.08,29.92,0,0,0,0.00
2014-10-28,83.7,68.6,55.7,68.6,60.9,54.3,97,79,48,30.13,30.04,0,0,0,0.00
2014-10-29,80.6,71.3,63.7,66.8,64.1,61.6,96,79,56,30.06,29.89,0,0,0,0.00
2014-10-30,70.1,61.9,55.4,64.6,56.0,51.4,94,82,60,29.97,29.89,0,0,0,0.00
2014-10-31,66.4,57.3,49.8,52.0,48.9,45.6,93,76,48,29.90,29.72,0,0,0,0.00
2014-11-1,54.0,47.5,41.3,48.7,44.8,39.4,95,90,78,29.92,29.59,0,0,0,0.00
2014-11-2,53.9,46.3,39.8,42.1,34.3,29.0,80,65,43,30.29,29.92,0,0,0,0.00
2014-11-3,63.1,47.9,33.9,41.1,33.1,26.5,86,61,26,30.41,30.28,0,0,0,0.00
2014-11-4,67.2,53.9,39.1,52.2,43.1,35.0,92,71,31,30.37,30.23,0,0,0,0.00
2014-11-5,73.2,63.7,53.8,63.2,58.4,51.8,96,84,67,30.27,30.15,0,0,0,0.00
2014-11-6,77.4,68.2,58.8,65.6,62.0,56.5,95,81,65,30.15,29.75,0,0,0,0.00
2014-11-7,65.0,55.2,44.4,56.8,40.8,35.9,90,60,43,30.01,29.78,0,0,0,0.00
2014-11-8,62.5,51.6,39.9,50.1,44.7,36.6,92,78,60,30.04,29.90,0,0,0,0.00
2014-11-9,61.3,54.5,47.4,50.0,48.1,44.9,91,80,61,29.98,29.88,0,0,0,0.00
2014-11-10,62.3,54.5,44.4,51.1,46.3,41.5,92,75,57,30.06,29.92,0,0,0,0.00
2014-11-11,72.2,63.7,56.7,65.0,59.6,51.0,92,87,77,29.92,29.82,0,0,0,0.00
2014-11-12,76.7,64.0,55.5,61.2,56.6,54.1,97,79,48,29.96,29.87,0,0,0,0.00
2014-11-13,71.6,63.2,52.8,61.5,57.0,48.1,92,81,69,29.98,29.89,0,0,0,0.00
2014-11-14,52.6,43.7,34.4,48.2,37.7,31.2,88,80,70,30.25,29.94,0,0,0,0.00
2014-11-15,48.7,38.2,29.4,31.7,26.0,22.1,88,63,38,30.40,30.25,0,0,0,0.00
2014-11-16,54.2,46.2,34.8,49.4,41.2,26.7,94,83,65,30.30,30.03,0,0,0,0.00
2014-11-17,75.9,61.6,46.2,69.3,58.2,44.7,98,89,76,30.03,29.65,17,3,24,0.00
2014-11-18,53.1,40.1,28.8,45.2,27.6,19.6,87,62,39,30.30,29.83,6,2,12,0.00
2014-11-19,46.6,35.6,24.0,33.5,24.3,14.7,88,67,30,30.41,30.24,5,1,8,0.05
2014-11-20,62.1,47.5,32.9,39.5,32.9,26.5,86,60,35,30.25,30.05,8,2,11,0.01
2014-11-21,58.9,48.7,37.8,39.4,31.5,20.2,85,54,31,30.48,30.17,5,1,8,0.01
2014-11-22,60.8,46.4,31.4,48.1,37.1,20.0,94,71,51,30.50,30.25,2,0,5,0.02
2014-11-23,69.1,59.2,46.7,67.5,57.8,45.0,97,95,90,30.25,29.70,12,2,18,0.04
2014-11-24,74.8,68.8,66.2,71.5,66.7,64.2,97,93,88,29.94,29.73,4,0,8,0.05
2014-11-25,66.4,63.3,62.1,64.5,62.0,60.7,97,96,93,30.06,29.86,3,0,3,0.04
2014-11-26,66.3,52.7,44.3,65.6,50.8,42.7,98,93,86,30.07,29.70,6,1,11,0.03
2014-11-27,53.5,46.1,39.4,43.1,38.9,35.0,95,78,54,30.23,30.00,10,2,16,0.01
2014-11-28,47.4,39.4,32.5,35.1,28.0,23.2,87,66,40,30.35,30.23,8,1,11,0.01
2014-12-9,51.1,46.7,40.9,43.2,41.6,39.1,94,83,72,29.97,29.86,4,1,6,0.00
2014-12-10,55.3,46.3,37.1,42.9,37.0,32.0,91,72,46,30.01,29.91,8,1,11,0.00
2014-12-11,52.6,40.6,30.6,33.8,30.9,27.6,91,71,44,30.12,29.99,5,1,8,0.00
2014-12-12,59.5,43.8,29.6,29.7,26.6,22.4,90,56,24,30.23,30.08,0,0,0,0.18
2014-12-13,62.5,47.1,32.1,33.0,28.4,21.6,86,53,22,30.14,29.99,0,0,0,0.03
2014-12-14,61.3,45.5,33.6,39.3,34.1,29.5,90,67,38,30.04,29.95,4,0,7,0.01
2014-12-15,64.1,46.5,32.0,44.4,38.4,30.2,95,77,41,30.09,30.00,0,0,0,0.01
2014-12-16,71.7,54.3,39.6,55.3,46.9,37.6,96,79,46,30.04,29.86,8,1,13,0.01
2014-12-17,62.4,52.6,43.7,46.1,43.3,40.0,87,72,50,30.11,29.98,1,0,4,0.01
2014-12-18,57.8,46.4,37.5,42.3,37.2,33.0,93,73,42,30.15,30.03,3,0,6,0.02
2014-12-19,60.0,46.4,36.8,41.4,37.7,34.6,93,74,42,30.15,30.04,1,0,5,0.00
2014-12-20,47.2,44.8,41.7,45.6,42.0,39.4,94,90,80,30.22,30.13,0,0,0,0.01
2014-12-21,50.9,44.6,40.3,43.5,39.7,36.2,93,83,70,30.23,30.08,5,0,8,0.01
2014-12-22,45.2,44.3,42.7,43.9,43.0,41.4,96,95,93,30.08,29.91,1,0,2,0.00
2014-12-23,53.2,48.7,44.2,52.7,47.9,43.1,98,97,96,30.01,29.87,0,0,0,0.01
2014-12-24,72.5,66.3,53.4,69.7,64.9,52.7,99,95,88,29.88,29.69,14,3,17,0.01
2014-12-25,65.3,55.7,43.0,63.8,48.3,40.8,95,77,58,30.22,29.72,8,2,17,0.01
2014-12-26,63.2,48.1,37.1,45.7,40.9,35.5,95,79,47,30.32,30.20,0,0,3,0.00
2014-12-27,66.5,50.4,36.8,49.8,43.4,35.4,96,79,51,30.33,30.17,2,0,5,0.01
2014-12-28,75.0,62.6,51.5,64.8,57.4,47.9,93,84,67,30.17,29.97,9,1,12,0.00
2014-12-29,65.3,59.9,53.6,62.3,58.5,52.5,97,95,90,30.07,29.96,1,0,3,0.00
2014-12-30,53.6,44.8,41.3,52.2,42.9,38.0,96,93,88,30.38,30.06,4,1,9,0.00
2014-12-31,49.4,40.5,33.5,37.9,32.8,28.4,94,76,48,30.44,30.32,3,0,5,0.00
2015-1-1,56.2,42.7,30.9,39.8,35.0,29.1,95,76,49,30.34,30.22,2,0,4,0.00
2015-1-2,62.7,54.1,46.5,50.9,46.1,39.4,94,75,58,30.34,30.22,1,0,4,0.00